Time;durP1;ratioP1;P1;durP2;ratioP2;P2;SDS_P1;SDS_P2;PMS_P1;PMS_P2;Temp;Humidity;BMP_temperature;BMP_pressure;BME280_temperature;BME280_humidity;BME280_pressure;Samples;Min_cycle;Max_cycle;Signal;HPM_P1;HPM_P2
2024/01/21 00:01:15;;;;;;;13.80;5.97;;;2.70;99.90;;;;;;5052240;28;20047;-74
2024/01/21 00:03:41;;;;;;;11.50;5.78;;;2.70;99.90;;;;;;5052301;28;20021;-75
2024/01/21 00:06:06;;;;;;;10.85;5.30;;;2.70;1.00;;;;;;5051872;28;20112;-74
2024/01/21 00:08:32;;;;;;;9.50;4.93;;;2.80;1.00;;;;;;5051997;28;20157;-75
2024/01/21 00:10:57;;;;;;;10.57;4.88;;;2.70;1.00;;;;;;5052422;28;20398;-75
2024/01/21 00:13:23;;;;;;;11.35;5.03;;;2.70;1.00;;;;;;5052168;28;20299;-74
2024/01/21 00:15:48;;;;;;;10.93;5.22;;;2.70;1.00;;;;;;5052759;28;20467;-74
2024/01/21 00:18:15;;;;;;;12.45;5.47;;;2.80;1.00;;;;;;5053245;28;20032;-74
2024/01/21 00:20:41;;;;;;;11.63;5.00;;;2.70;1.00;;;;;;5052353;28;20388;-74
2024/01/21 00:23:07;;;;;;;12.75;5.57;;;2.70;1.00;;;;;;5050672;28;20025;-74
2024/01/21 00:25:33;;;;;;;12.70;6.45;;;2.80;99.90;;;;;;5051793;28;20033;-74
2024/01/21 00:27:58;;;;;;;13.75;5.97;;;2.80;99.90;;;;;;5051848;28;20104;-74
2024/01/21 00:30:24;;;;;;;9.55;4.85;;;2.80;99.90;;;;;;5051394;28;20049;-74
2024/01/21 00:32:49;;;;;;;13.27;5.47;;;2.70;99.90;;;;;;5052069;28;20078;-75
2024/01/21 00:35:15;;;;;;;13.75;5.28;;;2.70;99.90;;;;;;5051779;28;20025;-74
2024/01/21 00:37:40;;;;;;;13.05;5.05;;;2.70;48.60;;;;;;5051840;28;20028;-75
2024/01/21 00:40:08;;;;;;;11.05;5.07;;;2.50;1.00;;;;;;5051597;28;20020;-73
2024/01/21 00:42:34;;;;;;;10.38;4.85;;;2.60;99.90;;;;;;5052012;28;20173;-74
2024/01/21 00:45:00;;;;;;;11.38;5.40;;;2.70;1.00;;;;;;5051990;28;20048;-74
2024/01/21 00:47:26;;;;;;;13.05;5.45;;;2.70;1.00;;;;;;5052083;28;20199;-73
2024/01/21 00:49:52;;;;;;;9.70;4.68;;;2.70;1.00;;;;;;5052162;28;20025;-74
2024/01/21 00:52:17;;;;;;;13.70;5.70;;;2.70;99.90;;;;;;5051925;28;20021;-75
2024/01/21 00:54:43;;;;;;;10.80;5.30;;;2.70;99.90;;;;;;5052177;28;20060;-74
2024/01/21 00:57:08;;;;;;;14.52;5.53;;;2.70;99.90;;;;;;5051352;28;20029;-74
2024/01/21 00:59:34;;;;;;;10.50;5.07;;;2.60;99.90;;;;;;5051755;28;20064;-75
2024/01/21 01:02:00;;;;;;;12.80;4.75;;;2.60;99.90;;;;;;5048321;28;20032;-73
2024/01/21 01:04:25;;;;;;;12.93;4.82;;;2.60;1.00;;;;;;5051338;28;20511;-76
2024/01/21 01:06:51;;;;;;;12.07;4.85;;;2.60;1.00;;;;;;5050697;28;20032;-76
2024/01/21 01:09:16;;;;;;;9.07;4.25;;;2.60;1.00;;;;;;5051531;28;20457;-76
2024/01/21 01:11:42;;;;;;;10.95;4.75;;;2.60;99.90;;;;;;5051904;28;20108;-75
2024/01/21 01:14:07;;;;;;;9.18;4.75;;;2.60;99.90;;;;;;5051602;28;20506;-74
2024/01/21 01:16:40;;;;;;;9.45;4.97;;;2.50;1.00;;;;;;5051380;28;20029;-74
2024/01/21 01:19:09;;;;;;;8.65;4.65;;;2.50;99.90;;;;;;5051949;28;20106;-74
2024/01/21 01:21:35;;;;;;;11.23;5.10;;;2.50;99.90;;;;;;5051727;28;20029;-74
2024/01/21 01:24:01;;;;;;;8.15;4.25;;;2.50;99.90;;;;;;5051569;28;20032;-74
2024/01/21 01:26:26;;;;;;;12.52;4.25;;;2.60;1.00;;;;;;5051278;28;20055;-73
2024/01/21 01:28:52;;;;;;;7.38;4.25;;;2.50;99.90;;;;;;5051313;28;20056;-74
2024/01/21 01:31:18;;;;;;;14.32;4.53;;;2.50;1.00;;;;;;5051330;28;20057;-75
2024/01/21 01:33:44;;;;;;;11.57;5.05;;;2.60;99.90;;;;;;5051376;28;20480;-74
2024/01/21 01:36:10;;;;;;;7.97;4.07;;;2.70;99.90;;;;;;5052161;28;20074;-75
2024/01/21 01:38:36;;;;;;;10.07;4.78;;;2.60;1.00;;;;;;5052591;28;20029;-74
2024/01/21 01:41:02;;;;;;;12.65;4.78;;;2.60;1.00;;;;;;5051250;28;20028;-74
2024/01/21 01:43:27;;;;;;;8.13;4.35;;;2.60;1.00;;;;;;5054032;28;20555;-74
2024/01/21 01:45:53;;;;;;;9.15;4.05;;;2.60;1.00;;;;;;5054935;28;20104;-74
2024/01/21 01:48:22;;;;;;;7.82;4.28;;;2.70;1.00;;;;;;5054903;28;20025;-75
2024/01/21 01:50:48;;;;;;;7.97;4.47;;;2.60;1.00;;;;;;5054845;28;20741;-75
2024/01/21 01:53:14;;;;;;;9.50;4.07;;;2.60;1.00;;;;;;5054752;28;20453;-74
2024/01/21 01:55:40;;;;;;;8.23;4.65;;;2.70;1.00;;;;;;5054522;28;20067;-73
2024/01/21 01:58:06;;;;;;;13.48;5.63;;;2.70;1.00;;;;;;5054923;28;20017;-73
2024/01/21 02:00:32;;;;;;;12.15;4.53;;;2.60;1.00;;;;;;5055078;28;20032;-73
2024/01/21 02:02:58;;;;;;;10.93;4.65;;;2.70;1.00;;;;;;5054595;28;20083;-73
2024/01/21 02:05:24;;;;;;;12.50;4.72;;;2.70;1.00;;;;;;5054326;28;20021;-74
2024/01/21 02:07:49;;;;;;;8.40;4.05;;;2.60;99.90;;;;;;5054314;28;20029;-73
2024/01/21 02:10:15;;;;;;;13.02;4.45;;;2.70;1.00;;;;;;5054546;28;20025;-73
2024/01/21 02:12:43;;;;;;;8.05;4.45;;;2.70;99.90;;;;;;5053684;28;20021;-73
2024/01/21 02:15:09;;;;;;;7.53;4.45;;;2.70;99.90;;;;;;5054084;28;20047;-73
2024/01/21 02:17:35;;;;;;;8.60;4.50;;;2.80;15.80;;;;;;5054051;28;20025;-73
2024/01/21 02:20:00;;;;;;;10.95;4.57;;;2.60;1.00;;;;;;5053990;28;20029;-73
2024/01/21 02:22:27;;;;;;;11.02;4.50;;;2.80;1.00;;;;;;5054024;28;20104;-73
2024/01/21 02:24:53;;;;;;;11.27;4.65;;;2.90;1.00;;;;;;5053967;28;20021;-73
2024/01/21 02:27:18;;;;;;;9.70;4.75;;;2.70;1.00;;;;;;5053961;28;20031;-74
2024/01/21 02:29:44;;;;;;;10.77;4.97;;;2.70;1.00;;;;;;5053968;28;20021;-74
2024/01/21 02:32:09;;;;;;;7.60;4.38;;;2.70;1.00;;;;;;5053841;28;20033;-73
2024/01/21 02:34:35;;;;;;;8.85;4.70;;;2.80;1.00;;;;;;5053856;28;20476;-74
2024/01/21 02:37:00;;;;;;;8.27;4.60;;;2.80;99.90;;;;;;5053599;28;20065;-73
2024/01/21 02:39:26;;;;;;;10.68;4.82;;;2.80;99.90;;;;;;5053892;28;20029;-73
2024/01/21 02:41:52;;;;;;;11.00;4.55;;;2.80;7.50;;;;;;5053876;28;20027;-73
2024/01/21 02:44:17;;;;;;;9.07;4.63;;;3.00;1.00;;;;;;5053825;28;20017;-73
2024/01/21 02:46:43;;;;;;;8.23;4.63;;;2.90;1.00;;;;;;5053478;28;20025;-75
2024/01/21 02:49:09;;;;;;;9.70;4.68;;;2.80;99.90;;;;;;5053414;28;20024;-73
2024/01/21 02:51:34;;;;;;;8.70;4.53;;;2.80;99.90;;;;;;5053615;28;20029;-73
2024/01/21 02:54:00;;;;;;;7.40;4.50;;;2.90;99.90;;;;;;5053264;28;20021;-73
2024/01/21 02:56:28;;;;;;;10.23;4.50;;;2.90;15.30;;;;;;5053162;28;20032;-73
2024/01/21 02:58:54;;;;;;;9.20;4.57;;;2.80;1.00;;;;;;5053333;28;20025;-73
2024/01/21 03:01:20;;;;;;;7.18;4.30;;;2.80;1.00;;;;;;5053597;28;20025;-76
2024/01/21 03:03:46;;;;;;;9.90;4.60;;;3.30;1.00;;;;;;5053211;28;20436;-73
2024/01/21 03:06:11;;;;;;;12.15;4.72;;;2.90;1.00;;;;;;5053010;28;20052;-73
2024/01/21 03:08:37;;;;;;;10.88;4.55;;;2.90;1.00;;;;;;5053266;28;20471;-73
2024/01/21 03:11:04;;;;;;;9.38;4.10;;;2.90;1.00;;;;;;5053190;28;20108;-74
2024/01/21 03:13:29;;;;;;;8.07;4.22;;;2.90;1.00;;;;;;5053241;28;20025;-74
2024/01/21 03:15:55;;;;;;;11.27;4.78;;;2.90;1.00;;;;;;5052816;28;20079;-73
2024/01/21 03:18:21;;;;;;;8.65;4.38;;;3.00;1.00;;;;;;5052933;28;20100;-73
2024/01/21 03:20:47;;;;;;;8.68;4.28;;;3.00;99.90;;;;;;5052953;28;20025;-73
2024/01/21 03:23:13;;;;;;;9.40;4.25;;;3.00;99.90;;;;;;5053113;28;20074;-73
2024/01/21 03:25:39;;;;;;;12.27;4.40;;;3.10;99.90;;;;;;5052752;28;20059;-73
2024/01/21 03:28:05;;;;;;;7.57;4.32;;;3.00;99.90;;;;;;5052780;28;20060;-74
2024/01/21 03:30:30;;;;;;;8.85;4.50;;;3.00;99.90;;;;;;5052757;28;20502;-74
2024/01/21 03:32:56;;;;;;;10.82;4.30;;;3.00;99.90;;;;;;5052720;28;20036;-74
2024/01/21 03:35:22;;;;;;;9.10;4.30;;;3.00;99.90;;;;;;5052380;28;20482;-73
2024/01/21 03:37:48;;;;;;;9.00;4.82;;;3.00;99.90;;;;;;5052308;28;20116;-74
2024/01/21 03:40:14;;;;;;;9.73;4.93;;;3.20;99.90;;;;;;5052873;28;20388;-73
2024/01/21 03:42:39;;;;;;;12.85;4.35;;;3.00;99.90;;;;;;5052402;28;20017;-73
2024/01/21 03:45:05;;;;;;;8.88;4.57;;;3.00;99.90;;;;;;5052215;28;20035;-75
2024/01/21 03:47:31;;;;;;;8.63;4.28;;;3.00;99.90;;;;;;5052270;28;20036;-75
2024/01/21 03:49:57;;;;;;;9.77;4.40;;;3.00;99.90;;;;;;5052624;28;20063;-74
2024/01/21 03:52:22;;;;;;;10.40;4.57;;;3.00;99.90;;;;;;5052210;28;20028;-74
2024/01/21 03:54:48;;;;;;;11.15;4.88;;;3.10;99.90;;;;;;5052111;28;20025;-74
2024/01/21 03:57:14;;;;;;;8.88;4.20;;;3.10;99.90;;;;;;5051903;28;20025;-74
2024/01/21 03:59:40;;;;;;;9.88;4.13;;;3.10;99.90;;;;;;5052251;28;20357;-75
2024/01/21 04:02:06;;;;;;;8.20;4.47;;;3.20;23.50;;;;;;5052043;28;20060;-74
2024/01/21 04:04:31;;;;;;;12.60;4.50;;;3.10;27.10;;;;;;5052063;28;20057;-73
2024/01/21 04:06:57;;;;;;;8.07;4.25;;;3.30;1.00;;;;;;5049387;28;20076;-73
2024/01/21 04:09:23;;;;;;;14.57;5.25;;;3.20;1.00;;;;;;5051722;28;20037;-73
2024/01/21 04:11:52;;;;;;;10.77;4.30;;;3.30;1.00;;;;;;5052023;28;20056;-73
2024/01/21 04:14:17;;;;;;;11.63;4.57;;;3.40;1.00;;;;;;5052239;28;20021;-74
2024/01/21 04:16:43;;;;;;;11.00;3.92;;;3.50;1.00;;;;;;5051042;28;20086;-74
2024/01/21 04:19:09;;;;;;;15.25;4.03;;;3.40;1.00;;;;;;5052761;28;20017;-74
2024/01/21 04:21:36;;;;;;;10.45;4.57;;;3.50;1.00;;;;;;5052449;28;20025;-74
2024/01/21 04:24:02;;;;;;;10.02;4.43;;;3.30;20.70;;;;;;5030750;28;20036;-73
2024/01/21 04:26:28;;;;;;;10.27;4.45;;;3.30;58.70;;;;;;5032030;28;20108;-73
2024/01/21 04:28:54;;;;;;;9.18;4.28;;;3.40;26.60;;;;;;5050539;28;20373;-73
2024/01/21 04:31:19;;;;;;;15.95;4.55;;;3.30;12.20;;;;;;5051651;28;20032;-72
2024/01/21 04:33:45;;;;;;;9.65;4.53;;;3.30;27.30;;;;;;5051771;28;20037;-73
2024/01/21 04:36:18;;;;;;;10.50;5.03;;;3.30;25.10;;;;;;5050892;28;20025;-71
2024/01/21 04:38:47;;;;;;;9.18;4.25;;;3.30;24.30;;;;;;5051579;28;20029;-72
2024/01/21 04:41:13;;;;;;;9.02;4.60;;;3.20;25.70;;;;;;5051703;28;20029;-71
2024/01/21 04:43:39;;;;;;;8.95;4.63;;;3.20;41.80;;;;;;5051527;28;20033;-73
2024/01/21 04:46:06;;;;;;;11.85;5.20;;;3.10;54.80;;;;;;5050959;28;20454;-72
2024/01/21 04:48:31;;;;;;;9.98;5.03;;;3.10;68.50;;;;;;5051712;28;20025;-73
2024/01/21 04:50:57;;;;;;;14.50;5.57;;;3.20;85.60;;;;;;5051606;28;20087;-73
2024/01/21 04:53:23;;;;;;;9.18;4.60;;;3.30;78.50;;;;;;5052212;28;20515;-72
2024/01/21 04:55:48;;;;;;;11.80;4.95;;;3.30;1.00;;;;;;5053258;28;20123;-73
2024/01/21 04:58:14;;;;;;;12.73;4.85;;;3.20;12.60;;;;;;5051790;28;20029;-71
2024/01/21 05:00:39;;;;;;;11.65;5.05;;;3.20;24.30;;;;;;5051343;28;20021;-72
2024/01/21 05:03:05;;;;;;;8.60;4.65;;;3.30;1.00;;;;;;5051992;28;20053;-73
2024/01/21 05:05:30;;;;;;;14.70;4.93;;;3.30;1.00;;;;;;5051030;28;20021;-72
2024/01/21 05:07:56;;;;;;;7.85;4.32;;;3.30;1.00;;;;;;5051506;28;20112;-72
2024/01/21 05:10:22;;;;;;;13.48;4.72;;;3.30;1.00;;;;;;5051581;28;20036;-71
2024/01/21 05:12:48;;;;;;;13.68;5.20;;;3.20;1.00;;;;;;5051297;28;20029;-73
2024/01/21 05:15:13;;;;;;;12.65;4.93;;;3.20;1.00;;;;;;5050934;28;20036;-71
2024/01/21 05:17:39;;;;;;;8.98;4.85;;;3.20;1.00;;;;;;5052952;28;20582;-73
2024/01/21 05:20:08;;;;;;;12.75;4.38;;;3.40;1.00;;;;;;5055653;28;20021;-72
2024/01/21 05:22:34;;;;;;;8.35;4.45;;;3.30;1.00;;;;;;5055350;28;20028;-72
2024/01/21 05:24:59;;;;;;;14.38;4.43;;;3.40;1.00;;;;;;5055096;28;20483;-71
2024/01/21 05:27:25;;;;;;;10.80;4.00;;;3.40;1.00;;;;;;5055170;28;20108;-73
2024/01/21 05:29:50;;;;;;;12.20;4.20;;;3.50;1.00;;;;;;5055611;28;20025;-73
2024/01/21 05:32:16;;;;;;;7.22;3.63;;;3.50;1.00;;;;;;5055399;28;20021;-72
2024/01/21 05:34:42;;;;;;;13.27;4.38;;;3.50;1.00;;;;;;5055221;28;20396;-71
2024/01/21 05:37:07;;;;;;;15.80;3.83;;;3.50;1.00;;;;;;5054502;28;20033;-72
2024/01/21 05:39:33;;;;;;;8.80;3.72;;;3.60;1.00;;;;;;5054719;28;20040;-71
2024/01/21 05:42:03;;;;;;;11.70;3.88;;;3.70;1.00;;;;;;5054860;28;20155;-73
2024/01/21 05:44:28;;;;;;;12.52;4.45;;;3.70;1.00;;;;;;5055509;28;20027;-73
2024/01/21 05:46:54;;;;;;;8.57;3.97;;;3.70;1.00;;;;;;5055005;28;20025;-72
2024/01/21 05:49:20;;;;;;;9.82;3.67;;;3.70;1.00;;;;;;5053577;28;20112;-71
2024/01/21 05:51:46;;;;;;;7.38;3.88;;;3.70;1.00;;;;;;5054634;28;20113;-71
2024/01/21 05:54:12;;;;;;;8.07;3.30;;;3.80;1.00;;;;;;5054722;28;20053;-73
2024/01/21 05:56:37;;;;;;;9.35;3.85;;;3.70;1.00;;;;;;5054552;28;20448;-73
2024/01/21 05:59:03;;;;;;;9.30;3.50;;;3.80;1.00;;;;;;5055372;28;20025;-73
2024/01/21 06:01:29;;;;;;;8.18;3.50;;;3.80;1.00;;;;;;5055035;28;20017;-73
2024/01/21 06:03:54;;;;;;;8.63;3.58;;;3.70;1.00;;;;;;5054458;28;20104;-72
2024/01/21 06:06:20;;;;;;;10.23;3.45;;;3.70;1.00;;;;;;5054130;28;20021;-72
2024/01/21 06:08:45;;;;;;;6.78;3.50;;;3.70;1.00;;;;;;5054306;28;20025;-72
2024/01/21 06:11:11;;;;;;;8.20;3.33;;;3.90;1.00;;;;;;5054380;28;20029;-72
2024/01/21 06:13:37;;;;;;;11.57;3.20;;;3.80;1.00;;;;;;5064229;28;20028;-72
2024/01/21 06:16:03;;;;;;;18.25;3.45;;;3.90;1.00;;;;;;5056277;28;20454;-71
2024/01/21 06:18:29;;;;;;;7.75;3.47;;;3.80;1.00;;;;;;5053467;28;20075;-75
2024/01/21 06:20:54;;;;;;;9.02;3.33;;;3.80;1.00;;;;;;5049847;28;20033;-72
2024/01/21 06:23:20;;;;;;;7.35;3.10;;;3.80;1.00;;;;;;5052692;28;20051;-73
2024/01/21 06:25:46;;;;;;;6.63;3.42;;;4.00;1.00;;;;;;5052336;28;20055;-75
2024/01/21 06:28:12;;;;;;;10.95;3.28;;;3.90;1.00;;;;;;5048518;28;20449;-75
2024/01/21 06:30:38;;;;;;;9.40;3.30;;;3.90;1.00;;;;;;5051642;28;20079;-71
2024/01/21 06:33:04;;;;;;;8.00;3.60;;;3.90;1.00;;;;;;5055559;28;20107;-71
2024/01/21 06:35:30;;;;;;;8.35;3.22;;;3.90;99.90;;;;;;5053344;28;20024;-72
2024/01/21 06:37:56;;;;;;;5.72;3.17;;;3.90;99.90;;;;;;5044751;28;20373;-74
2024/01/21 06:40:21;;;;;;;6.80;3.60;;;3.90;99.90;;;;;;5051037;28;20029;-73
2024/01/21 06:42:47;;;;;;;8.88;3.47;;;3.80;99.90;;;;;;5052289;28;20032;-72
2024/01/21 06:45:13;;;;;;;9.32;3.25;;;3.90;99.90;;;;;;5049868;28;20071;-71
2024/01/21 06:47:40;;;;;;;9.07;2.78;;;3.90;99.90;;;;;;5052766;28;20109;-72
2024/01/21 06:50:06;;;;;;;6.93;2.92;;;4.00;99.90;;;;;;5059040;28;20108;-72
2024/01/21 06:52:32;;;;;;;6.43;2.88;;;3.90;99.90;;;;;;5055710;28;20059;-72
2024/01/21 06:54:57;;;;;;;6.50;2.92;;;4.10;99.90;;;;;;5051757;28;20029;-71
2024/01/21 06:57:23;;;;;;;7.38;3.28;;;3.90;99.90;;;;;;5052265;28;20071;-70
2024/01/21 06:59:50;;;;;;;11.77;2.90;;;3.90;78.50;;;;;;5053815;28;20507;-73
2024/01/21 07:02:15;;;;;;;5.60;3.30;;;4.10;99.90;;;;;;5053150;28;20021;-72
2024/01/21 07:04:41;;;;;;;6.40;2.80;;;3.90;99.90;;;;;;5049635;28;20025;-73
2024/01/21 07:07:07;;;;;;;9.85;2.92;;;3.90;99.90;;;;;;5052483;28;20033;-72
2024/01/21 07:09:33;;;;;;;14.23;3.50;;;3.90;99.90;;;;;;5052274;28;20025;-73
2024/01/21 07:11:58;;;;;;;6.20;3.08;;;3.90;99.90;;;;;;5051369;28;20244;-73
2024/01/21 07:14:24;;;;;;;9.73;3.15;;;4.00;99.90;;;;;;5053265;28;20037;-75
2024/01/21 07:16:49;;;;;;;9.55;3.67;;;4.10;99.90;;;;;;5051953;28;20486;-71
2024/01/21 07:19:15;;;;;;;9.75;3.30;;;4.00;99.90;;;;;;5052709;28;20017;-72
2024/01/21 07:21:40;;;;;;;9.35;2.75;;;4.20;99.90;;;;;;5052994;28;20040;-75
2024/01/21 07:24:06;;;;;;;7.18;3.00;;;4.40;99.90;;;;;;5053209;28;20013;-72
2024/01/21 07:26:32;;;;;;;5.10;3.15;;;4.10;99.90;;;;;;5052786;28;20045;-72
2024/01/21 07:28:58;;;;;;;11.07;3.67;;;4.00;99.90;;;;;;5052934;28;20029;-72
2024/01/21 07:31:24;;;;;;;10.60;3.10;;;4.00;99.90;;;;;;5052737;28;20099;-72
2024/01/21 07:33:50;;;;;;;18.65;3.05;;;4.10;99.90;;;;;;5053328;28;20050;-72
2024/01/21 07:36:16;;;;;;;11.90;2.90;;;4.00;99.90;;;;;;5052772;28;20447;-72
2024/01/21 07:38:41;;;;;;;7.03;3.20;;;4.10;99.90;;;;;;5052613;28;20052;-70
2024/01/21 07:41:07;;;;;;;7.63;3.42;;;4.00;99.90;;;;;;5052210;28;20021;-71
2024/01/21 07:43:32;;;;;;;12.95;3.13;;;4.00;99.90;;;;;;5052806;28;20021;-73
2024/01/21 07:45:58;;;;;;;9.60;3.45;;;4.10;99.90;;;;;;5052501;28;20036;-74
2024/01/21 07:48:24;;;;;;;8.02;3.30;;;4.10;99.90;;;;;;5051145;28;20032;-72
2024/01/21 07:50:49;;;;;;;8.50;3.50;;;4.10;99.90;;;;;;5051478;28;20040;-72
2024/01/21 07:53:19;;;;;;;8.20;3.13;;;4.10;99.90;;;;;;5051440;28;20626;-72
2024/01/21 07:55:44;;;;;;;17.67;3.47;;;4.10;99.90;;;;;;5050563;28;20021;-72
2024/01/21 07:58:12;;;;;;;8.52;3.22;;;4.10;99.90;;;;;;5051020;28;20487;-75
2024/01/21 08:00:38;;;;;;;4.95;3.00;;;4.30;99.90;;;;;;5051554;28;20021;-73
2024/01/21 08:03:05;;;;;;;12.13;3.45;;;4.40;99.90;;;;;;5050198;28;20059;-71
2024/01/21 08:05:32;;;;;;;8.23;3.95;;;4.40;99.90;;;;;;5050592;28;20078;-71
2024/01/21 08:07:58;;;;;;;8.13;3.22;;;4.40;99.90;;;;;;5050938;28;20025;-70
2024/01/21 08:10:24;;;;;;;8.25;3.50;;;4.30;99.90;;;;;;5051268;28;20029;-71
2024/01/21 08:12:49;;;;;;;21.27;4.40;;;4.30;99.90;;;;;;5051028;28;20103;-71
2024/01/21 08:15:15;;;;;;;15.48;3.58;;;4.30;99.90;;;;;;5050361;28;20481;-74
2024/01/21 08:17:40;;;;;;;7.15;3.60;;;4.40;99.90;;;;;;5050036;28;20095;-73
2024/01/21 08:20:07;;;;;;;13.13;4.57;;;4.40;99.90;;;;;;5051827;28;20024;-72
2024/01/21 08:22:32;;;;;;;7.88;4.03;;;4.30;99.90;;;;;;5051002;28;20512;-73
2024/01/21 08:24:58;;;;;;;11.95;3.63;;;4.30;99.90;;;;;;5050968;28;20108;-71
2024/01/21 08:27:24;;;;;;;8.02;3.33;;;4.50;99.90;;;;;;5049727;28;20086;-71
2024/01/21 08:29:49;;;;;;;11.35;3.47;;;4.50;99.90;;;;;;5050720;28;20028;-73
2024/01/21 08:32:15;;;;;;;10.88;3.67;;;4.40;99.90;;;;;;5050931;28;20025;-71
2024/01/21 08:34:40;;;;;;;6.63;3.30;;;4.50;99.90;;;;;;5051040;28;20406;-73
2024/01/21 08:37:06;;;;;;;12.93;4.28;;;4.50;99.90;;;;;;5048900;28;20028;-72
2024/01/21 08:39:31;;;;;;;7.45;3.53;;;4.50;99.90;;;;;;5051132;28;20082;-73
2024/01/21 08:41:57;;;;;;;9.52;3.33;;;4.50;99.90;;;;;;5050270;28;20085;-72
2024/01/21 08:44:22;;;;;;;10.35;3.60;;;4.60;99.90;;;;;;5050475;28;20017;-72
2024/01/21 08:46:48;;;;;;;10.50;3.75;;;4.60;99.90;;;;;;5050540;28;20025;-73
2024/01/21 08:49:14;;;;;;;8.73;3.50;;;4.60;99.90;;;;;;5069449;28;20067;-71
2024/01/21 08:51:41;;;;;;;14.18;3.58;;;4.50;99.90;;;;;;5069840;28;20033;-71
2024/01/21 08:54:07;;;;;;;12.90;3.28;;;4.80;99.90;;;;;;5071091;28;20039;-71
2024/01/21 08:56:35;;;;;;;7.55;3.30;;;4.80;99.90;;;;;;5071549;28;20099;-72
2024/01/21 08:59:01;;;;;;;7.97;3.70;;;4.80;99.90;;;;;;5071784;28;20021;-72
2024/01/21 09:01:26;;;;;;;7.35;3.40;;;4.80;99.90;;;;;;5071429;28;20031;-70
2024/01/21 09:03:52;;;;;;;9.00;3.75;;;4.90;99.90;;;;;;5070878;28;20028;-71
2024/01/21 09:06:19;;;;;;;12.07;3.03;;;5.00;99.90;;;;;;5071325;28;20487;-73
2024/01/21 09:08:44;;;;;;;8.10;3.00;;;5.10;99.90;;;;;;5072341;28;20028;-71
2024/01/21 09:11:11;;;;;;;6.30;3.47;;;5.10;99.90;;;;;;5071909;28;20120;-72
2024/01/21 09:13:37;;;;;;;11.95;3.20;;;5.10;99.90;;;;;;5069968;28;20162;-71
2024/01/21 09:16:03;;;;;;;7.15;3.22;;;5.00;99.90;;;;;;5069179;28;20029;-71
2024/01/21 09:18:30;;;;;;;12.40;3.72;;;5.10;99.90;;;;;;5070030;28;20052;-72
2024/01/21 09:20:56;;;;;;;7.80;3.65;;;5.10;99.90;;;;;;5070362;28;20016;-72
2024/01/21 09:23:22;;;;;;;10.85;3.45;;;5.10;99.90;;;;;;5075502;28;20035;-73
2024/01/21 09:25:47;;;;;;;8.68;3.55;;;5.00;99.90;;;;;;5082452;28;20087;-71
2024/01/21 09:28:13;;;;;;;5.35;3.33;;;5.00;99.90;;;;;;5071876;28;20399;-71
2024/01/21 09:30:38;;;;;;;12.80;3.38;;;5.10;99.90;;;;;;5070501;28;20033;-70
2024/01/21 09:33:04;;;;;;;6.72;3.70;;;5.00;99.90;;;;;;5070408;28;20012;-71
2024/01/21 09:35:30;;;;;;;8.73;3.42;;;5.10;99.90;;;;;;5069721;28;20097;-71
2024/01/21 09:37:55;;;;;;;5.80;3.47;;;5.10;99.90;;;;;;5070159;28;20089;-72
2024/01/21 09:40:21;;;;;;;11.25;3.88;;;5.20;99.90;;;;;;5071660;28;20532;-73
2024/01/21 09:42:47;;;;;;;8.63;4.10;;;5.30;99.90;;;;;;5071208;28;20039;-71
2024/01/21 09:45:12;;;;;;;5.78;3.50;;;5.00;99.90;;;;;;5068176;28;20485;-70
2024/01/21 09:47:38;;;;;;;8.80;3.50;;;5.00;99.90;;;;;;5071024;28;20150;-72
2024/01/21 09:50:08;;;;;;;6.97;3.72;;;5.20;99.90;;;;;;5071222;28;20025;-73
2024/01/21 09:52:33;;;;;;;8.50;3.50;;;5.00;99.90;;;;;;5069940;28;20025;-73
2024/01/21 09:54:59;;;;;;;6.07;4.00;;;5.20;99.90;;;;;;5072911;28;20122;-73
2024/01/21 09:57:25;;;;;;;11.50;4.50;;;5.40;99.90;;;;;;5071181;28;20042;-73
2024/01/21 09:59:50;;;;;;;6.95;3.75;;;5.30;99.90;;;;;;5071025;28;20024;-72
2024/01/21 10:02:17;;;;;;;7.25;3.75;;;5.20;99.90;;;;;;5070186;28;20027;-72
2024/01/21 10:04:45;;;;;;;7.22;3.60;;;5.20;99.90;;;;;;5071987;28;20062;-75
2024/01/21 10:07:14;;;;;;;8.32;3.92;;;5.20;99.90;;;;;;5072254;28;20039;-72
2024/01/21 10:09:41;;;;;;;7.53;3.45;;;5.40;99.90;;;;;;5073332;28;20036;-73
2024/01/21 10:12:07;;;;;;;9.32;4.13;;;5.00;99.90;;;;;;5073129;28;20494;-72
2024/01/21 10:14:32;;;;;;;10.10;4.18;;;5.00;99.90;;;;;;5073481;28;20098;-72
2024/01/21 10:17:02;;;;;;;6.25;3.17;;;5.10;99.90;;;;;;5072702;28;20471;-73
2024/01/21 10:19:30;;;;;;;6.57;3.65;;;4.90;99.90;;;;;;5072582;28;20016;-74
2024/01/21 10:22:16;;;;;;;7.95;4.00;;;5.10;99.90;;;;;;5072953;28;20021;-73
2024/01/21 10:24:46;;;;;;;6.38;3.83;;;5.00;99.90;;;;;;5081160;28;20049;-75
2024/01/21 10:27:13;;;;;;;8.13;4.00;;;5.40;99.90;;;;;;5076178;28;20029;-75
2024/01/21 10:29:41;;;;;;;7.55;3.88;;;5.00;99.90;;;;;;5079467;28;20028;-74
2024/01/21 10:32:09;;;;;;;7.72;3.75;;;5.50;99.90;;;;;;5079319;28;20418;-75
2024/01/21 10:34:37;;;;;;;11.02;3.97;;;4.90;99.90;;;;;;5079027;28;20052;-76
2024/01/21 10:37:04;;;;;;;11.32;4.15;;;4.90;99.90;;;;;;5076872;28;20032;-73
2024/01/21 10:39:34;;;;;;;8.63;4.00;;;5.00;99.90;;;;;;5077087;28;20514;-73
2024/01/21 10:42:00;;;;;;;11.27;4.25;;;5.00;99.90;;;;;;5075267;28;20111;-73
2024/01/21 10:44:29;;;;;;;7.78;4.10;;;5.00;99.90;;;;;;5074169;28;20032;-73
2024/01/21 10:46:55;;;;;;;11.00;4.65;;;5.00;1.00;;;;;;5073415;28;20025;-73
2024/01/21 10:49:21;;;;;;;6.95;4.05;;;5.00;1.00;;;;;;5070222;28;20108;-73
2024/01/21 10:51:51;;;;;;;6.85;3.65;;;5.00;1.00;;;;;;5056013;28;20072;-73
2024/01/21 10:54:16;;;;;;;11.48;4.18;;;5.00;1.00;;;;;;5054206;28;20032;-74
2024/01/21 10:56:43;;;;;;;9.70;4.00;;;5.10;1.00;;;;;;5054576;28;20029;-72
2024/01/21 10:59:10;;;;;;;11.05;4.72;;;5.10;1.00;;;;;;5053052;28;20487;-72
2024/01/21 11:01:36;;;;;;;8.75;4.15;;;5.10;1.00;;;;;;5052244;28;20024;-72
2024/01/21 11:04:05;;;;;;;8.68;4.32;;;5.10;1.00;;;;;;5051303;28;20373;-73
2024/01/21 11:06:32;;;;;;;8.93;4.20;;;5.20;1.00;;;;;;5051791;28;20022;-71
2024/01/21 11:09:04;;;;;;;12.13;4.65;;;5.30;1.00;;;;;;5052116;28;20468;-71
2024/01/21 11:11:30;;;;;;;10.27;4.22;;;5.10;1.00;;;;;;5052722;28;20031;-72
2024/01/21 11:13:56;;;;;;;8.95;4.57;;;5.20;1.00;;;;;;5054878;28;20021;-72
2024/01/21 11:16:30;;;;;;;11.60;4.28;;;5.30;1.00;;;;;;5052828;28;20119;-74
2024/01/21 11:19:08;;;;;;;7.13;4.25;;;5.30;1.00;;;;;;5051957;28;20036;-72
2024/01/21 11:21:40;;;;;;;10.60;4.60;;;5.40;1.00;;;;;;5051790;28;20043;-74
2024/01/21 11:24:09;;;;;;;7.93;4.25;;;5.30;1.00;;;;;;5052365;28;20035;-74
2024/01/21 11:26:37;;;;;;;10.15;4.25;;;5.30;1.00;;;;;;5051457;28;20051;-73
2024/01/21 11:29:22;;;;;;;10.25;4.65;;;5.40;1.00;;;;;;5052541;28;22003;-72
2024/01/21 11:31:52;;;;;;;9.57;4.63;;;5.40;1.00;;;;;;5053193;28;20052;-72
2024/01/21 11:34:18;;;;;;;8.70;4.00;;;5.50;1.00;;;;;;5049828;28;20033;-72
2024/01/21 11:36:45;;;;;;;8.95;4.65;;;5.50;1.00;;;;;;5049040;28;20021;-71
2024/01/21 11:39:10;;;;;;;7.22;4.28;;;5.50;1.00;;;;;;5050031;28;20052;-73
2024/01/21 11:41:38;;;;;;;8.75;4.25;;;5.50;1.00;;;;;;5051263;28;20487;-74
2024/01/21 11:44:24;;;;;;;9.32;5.07;;;5.50;1.00;;;;;;5051604;28;20022;-72
2024/01/21 11:46:52;;;;;;;9.60;4.60;;;5.50;1.00;;;;;;5050937;28;20112;-72
2024/01/21 11:49:20;;;;;;;10.77;4.78;;;5.50;1.00;;;;;;5051110;28;20098;-73
2024/01/21 11:51:46;;;;;;;6.90;4.25;;;5.50;1.00;;;;;;5051645;28;20509;-72
2024/01/21 11:54:12;;;;;;;13.10;4.20;;;5.50;1.00;;;;;;5051953;28;20088;-71
2024/01/21 11:56:38;;;;;;;11.77;4.95;;;5.50;1.00;;;;;;5049885;28;20025;-74
2024/01/21 11:59:07;;;;;;;11.40;4.93;;;5.60;1.00;;;;;;5050092;28;20025;-73
2024/01/21 12:01:34;;;;;;;10.98;5.65;;;5.50;1.00;;;;;;5049764;28;20025;-73
2024/01/21 12:04:03;;;;;;;14.27;5.00;;;5.60;1.00;;;;;;5053236;28;20027;-73
2024/01/21 12:06:32;;;;;;;12.27;5.93;;;5.70;38.20;;;;;;5051451;28;20032;-76
2024/01/21 12:09:00;;;;;;;10.77;5.10;;;5.70;93.10;;;;;;5053297;28;20043;-74
2024/01/21 12:11:26;;;;;;;11.52;4.95;;;5.70;99.90;;;;;;5051214;28;20039;-71
2024/01/21 12:13:52;;;;;;;10.23;4.72;;;5.80;99.90;;;;;;5050890;28;20029;-72
2024/01/21 12:16:18;;;;;;;11.18;5.00;;;5.80;99.90;;;;;;5051040;28;20025;-73
2024/01/21 12:18:44;;;;;;;10.45;5.47;;;5.90;99.90;;;;;;5054560;28;20095;-73
2024/01/21 12:21:14;;;;;;;9.60;5.15;;;6.10;99.90;;;;;;5058541;28;20025;-73
2024/01/21 12:23:41;;;;;;;13.60;5.00;;;5.90;99.90;;;;;;5061958;28;20527;-73
2024/01/21 12:26:07;;;;;;;10.50;5.15;;;6.00;99.90;;;;;;5061080;28;20017;-75
2024/01/21 12:28:33;;;;;;;13.57;5.53;;;6.00;99.90;;;;;;5060632;28;20017;-74
2024/01/21 12:30:59;;;;;;;10.50;5.55;;;6.00;99.90;;;;;;5059082;28;20028;-73
2024/01/21 12:33:26;;;;;;;9.55;5.07;;;6.00;99.90;;;;;;5049257;28;20534;-72
2024/01/21 12:35:52;;;;;;;11.98;5.78;;;6.00;99.90;;;;;;5050902;28;20388;-73
2024/01/21 12:38:18;;;;;;;13.20;5.75;;;6.00;99.90;;;;;;5058369;28;20040;-73
2024/01/21 12:40:44;;;;;;;11.77;5.60;;;5.90;99.90;;;;;;5057122;28;20511;-72
2024/01/21 12:43:10;;;;;;;10.25;5.15;;;5.80;99.90;;;;;;5054079;28;20025;-71
2024/01/21 12:45:36;;;;;;;12.38;5.63;;;5.80;99.90;;;;;;5050278;28;20032;-72
2024/01/21 12:48:02;;;;;;;10.95;5.25;;;5.80;1.00;;;;;;5050133;28;20025;-71
2024/01/21 12:50:29;;;;;;;13.55;5.03;;;5.80;1.00;;;;;;5057979;28;20062;-73